Aviation Digital Data Service (ADDS)

Output produced by METARs form (1848 UTC 18 April 2019)
found at http://www.aviationweather.gov/metar/data/
 
METAR text: UUEE 181830Z 02003MPS CAVOK 07/M04 Q1029 R06C/CLRD62 R06R/CLRD62 NOSIG
Conditions at: UUEE (MOSCOW/SHEREMET', RU) observed 1830 UTC 18 April 2019
Temperature: 7.0°C (45°F)
Dewpoint: -4.0°C (25°F) [RH = 45%]
Pressure (altimeter): 30.38 inches Hg (1029.0 mb)
Winds: from the NNE (20 degrees) at 7 MPH (6 knots; 3.1 m/s)
Visibility: 6 or more miles (10+ km)
Ceiling: ceiling and visibility are OK
Clouds: unknown
Weather: no significant weather observed at this time

METAR text: UUEE 181800Z 02003MPS CAVOK 07/M05 Q1029 R06C/CLRD62 R06R/CLRD62 NOSIG
Conditions at: UUEE (MOSCOW/SHEREMET', RU) observed 1800 UTC 18 April 2019
Temperature: 7.0°C (45°F)
Dewpoint: -5.0°C (23°F) [RH = 42%]
Pressure (altimeter): 30.38 inches Hg (1029.0 mb)
Winds: from the NNE (20 degrees) at 7 MPH (6 knots; 3.1 m/s)
Visibility: 6 or more miles (10+ km)
Ceiling: ceiling and visibility are OK
Clouds: unknown
Weather: no significant weather observed at this time

METAR text: UUEE 181730Z 03004MPS CAVOK 07/M05 Q1028 R06C/CLRD62 R06R/CLRD62 NOSIG
Conditions at: UUEE (MOSCOW/SHEREMET', RU) observed 1730 UTC 18 April 2019
Temperature: 7.0°C (45°F)
Dewpoint: -5.0°C (23°F) [RH = 42%]
Pressure (altimeter): 30.35 inches Hg (1028.0 mb)
Winds: from the NNE (30 degrees) at 9 MPH (8 knots; 4.1 m/s)
Visibility: 6 or more miles (10+ km)
Ceiling: ceiling and visibility are OK
Clouds: unknown
Weather: no significant weather observed at this time

METAR text: UUEE 181700Z 03005MPS CAVOK 08/M05 Q1028 R06C/CLRD62 R06R/CLRD62 NOSIG
Conditions at: UUEE (MOSCOW/SHEREMET', RU) observed 1700 UTC 18 April 2019
Temperature: 8.0°C (46°F)
Dewpoint: -5.0°C (23°F) [RH = 39%]
Pressure (altimeter): 30.35 inches Hg (1028.0 mb)
Winds: from the NNE (30 degrees) at 12 MPH (10 knots; 5.1 m/s)
Visibility: 6 or more miles (10+ km)
Ceiling: ceiling and visibility are OK
Clouds: unknown
Weather: no significant weather observed at this time

METAR text: UUEE 181630Z 03004MPS CAVOK 09/M05 Q1028 R06C/CLRD62 R06R/CLRD62 NOSIG
Conditions at: UUEE (MOSCOW/SHEREMET', RU) observed 1630 UTC 18 April 2019
Temperature: 9.0°C (48°F)
Dewpoint: -5.0°C (23°F) [RH = 37%]
Pressure (altimeter): 30.35 inches Hg (1028.0 mb)
Winds: from the NNE (30 degrees) at 9 MPH (8 knots; 4.1 m/s)
Visibility: 6 or more miles (10+ km)
Ceiling: ceiling and visibility are OK
Clouds: unknown
Weather: no significant weather observed at this time

METAR text: UUEE 181600Z 03005MPS CAVOK 09/M05 Q1027 R06C/CLRD62 R06R/CLRD62 NOSIG
Conditions at: UUEE (MOSCOW/SHEREMET', RU) observed 1600 UTC 18 April 2019
Temperature: 9.0°C (48°F)
Dewpoint: -5.0°C (23°F) [RH = 37%]
Pressure (altimeter): 30.32 inches Hg (1027.0 mb)
Winds: from the NNE (30 degrees) at 12 MPH (10 knots; 5.1 m/s)
Visibility: 6 or more miles (10+ km)
Ceiling: ceiling and visibility are OK
Clouds: unknown
Weather: no significant weather observed at this time

METAR text: UUEE 181530Z 04005MPS CAVOK 09/M06 Q1027 R06R/CLRD62 R06C/CLRD62 NOSIG
Conditions at: UUEE (MOSCOW/SHEREMET', RU) observed 1530 UTC 18 April 2019
Temperature: 9.0°C (48°F)
Dewpoint: -6.0°C (21°F) [RH = 34%]
Pressure (altimeter): 30.32 inches Hg (1027.0 mb)
Winds: from the NE (40 degrees) at 12 MPH (10 knots; 5.1 m/s)
Visibility: 6 or more miles (10+ km)
Ceiling: ceiling and visibility are OK
Clouds: unknown
Weather: no significant weather observed at this time

METAR text: UUEE 181500Z 02004MPS CAVOK 09/M05 Q1027 R06R/CLRD62 R06C/CLRD62 NOSIG
Conditions at: UUEE (MOSCOW/SHEREMET', RU) observed 1500 UTC 18 April 2019
Temperature: 9.0°C (48°F)
Dewpoint: -5.0°C (23°F) [RH = 37%]
Pressure (altimeter): 30.32 inches Hg (1027.0 mb)
Winds: from the NNE (20 degrees) at 9 MPH (8 knots; 4.1 m/s)
Visibility: 6 or more miles (10+ km)
Ceiling: ceiling and visibility are OK
Clouds: unknown
Weather: no significant weather observed at this time

METAR text: UUEE 181430Z 03005MPS CAVOK 09/M04 Q1027 R06R/CLRD62 R06C/CLRD62 NOSIG
Conditions at: UUEE (MOSCOW/SHEREMET', RU) observed 1430 UTC 18 April 2019
Temperature: 9.0°C (48°F)
Dewpoint: -4.0°C (25°F) [RH = 40%]
Pressure (altimeter): 30.32 inches Hg (1027.0 mb)
Winds: from the NNE (30 degrees) at 12 MPH (10 knots; 5.1 m/s)
Visibility: 6 or more miles (10+ km)
Ceiling: ceiling and visibility are OK
Clouds: unknown
Weather: no significant weather observed at this time

METAR text: UUEE 181400Z 06004G09MPS CAVOK 10/M05 Q1027 R06R/CLRD62 R06C/CLRD62 NOSIG
Conditions at: UUEE (MOSCOW/SHEREMET', RU) observed 1400 UTC 18 April 2019
Temperature: 10.0°C (50°F)
Dewpoint: -5.0°C (23°F) [RH = 34%]
Pressure (altimeter): 30.32 inches Hg (1027.0 mb)
Winds: from the ENE (60 degrees) at 9 MPH (8 knots; 4.1 m/s)
gusting to 20 MPH (17 knots; 8.7 m/s)
Visibility: 6 or more miles (10+ km)
Ceiling: ceiling and visibility are OK
Clouds: unknown
Weather: no significant weather observed at this time

METAR text: UUEE 181330Z 04005MPS CAVOK 10/M05 Q1027 R06R/CLRD62 R06C/CLRD62 NOSIG
Conditions at: UUEE (MOSCOW/SHEREMET', RU) observed 1330 UTC 18 April 2019
Temperature: 10.0°C (50°F)
Dewpoint: -5.0°C (23°F) [RH = 34%]
Pressure (altimeter): 30.32 inches Hg (1027.0 mb)
Winds: from the NE (40 degrees) at 12 MPH (10 knots; 5.1 m/s)
Visibility: 6 or more miles (10+ km)
Ceiling: ceiling and visibility are OK
Clouds: unknown
Weather: no significant weather observed at this time

METAR text: UUEE 181300Z 04005MPS CAVOK 10/M04 Q1027 R06R/CLRD62 R06C/CLRD62 NOSIG
Conditions at: UUEE (MOSCOW/SHEREMET', RU) observed 1300 UTC 18 April 2019
Temperature: 10.0°C (50°F)
Dewpoint: -4.0°C (25°F) [RH = 37%]
Pressure (altimeter): 30.32 inches Hg (1027.0 mb)
Winds: from the NE (40 degrees) at 12 MPH (10 knots; 5.1 m/s)
Visibility: 6 or more miles (10+ km)
Ceiling: ceiling and visibility are OK
Clouds: unknown
Weather: no significant weather observed at this time

METAR text: UUEE 181230Z 02004MPS CAVOK 10/M05 Q1027 R06R/CLRD62 R06C/CLRD62 NOSIG
Conditions at: UUEE (MOSCOW/SHEREMET', RU) observed 1230 UTC 18 April 2019
Temperature: 10.0°C (50°F)
Dewpoint: -5.0°C (23°F) [RH = 34%]
Pressure (altimeter): 30.32 inches Hg (1027.0 mb)
Winds: from the NNE (20 degrees) at 9 MPH (8 knots; 4.1 m/s)
Visibility: 6 or more miles (10+ km)
Ceiling: ceiling and visibility are OK
Clouds: unknown
Weather: no significant weather observed at this time

METAR text: UUEE 181200Z 05005MPS CAVOK 10/M04 Q1027 R06R/CLRD62 R06C/CLRD62 NOSIG
Conditions at: UUEE (MOSCOW/SHEREMET', RU) observed 1200 UTC 18 April 2019
Temperature: 10.0°C (50°F)
Dewpoint: -4.0°C (25°F) [RH = 37%]
Pressure (altimeter): 30.32 inches Hg (1027.0 mb)
Winds: from the NE (50 degrees) at 12 MPH (10 knots; 5.1 m/s)
Visibility: 6 or more miles (10+ km)
Ceiling: ceiling and visibility are OK
Clouds: unknown
Weather: no significant weather observed at this time

METAR text: UUEE 181130Z 03003MPS 350V060 CAVOK 10/M05 Q1027 R06R/CLRD62 R06C/CLRD62 NOSIG
Conditions at: UUEE (MOSCOW/SHEREMET', RU) observed 1130 UTC 18 April 2019
Temperature: 10.0°C (50°F)
Dewpoint: -5.0°C (23°F) [RH = 34%]
Pressure (altimeter): 30.32 inches Hg (1027.0 mb)
Winds: from the NNE (30 degrees) at 7 MPH (6 knots; 3.1 m/s)
Visibility: 6 or more miles (10+ km)
Ceiling: ceiling and visibility are OK
Clouds: unknown
Weather: no significant weather observed at this time

METAR text: UUEE 181100Z 02004MPS CAVOK 10/M05 Q1027 R06R/CLRD62 R06C/CLRD62 NOSIG
Conditions at: UUEE (MOSCOW/SHEREMET', RU) observed 1100 UTC 18 April 2019
Temperature: 10.0°C (50°F)
Dewpoint: -5.0°C (23°F) [RH = 34%]
Pressure (altimeter): 30.32 inches Hg (1027.0 mb)
Winds: from the NNE (20 degrees) at 9 MPH (8 knots; 4.1 m/s)
Visibility: 6 or more miles (10+ km)
Ceiling: ceiling and visibility are OK
Clouds: unknown
Weather: no significant weather observed at this time

METAR text: UUEE 181030Z 01005MPS CAVOK 10/M04 Q1027 R06R/CLRD62 R06C/CLRD62 NOSIG
Conditions at: UUEE (MOSCOW/SHEREMET', RU) observed 1030 UTC 18 April 2019
Temperature: 10.0°C (50°F)
Dewpoint: -4.0°C (25°F) [RH = 37%]
Pressure (altimeter): 30.32 inches Hg (1027.0 mb)
Winds: from the N (10 degrees) at 12 MPH (10 knots; 5.1 m/s)
Visibility: 6 or more miles (10+ km)
Ceiling: ceiling and visibility are OK
Clouds: unknown
Weather: no significant weather observed at this time

METAR text: UUEE 181000Z 04004MPS 360V070 CAVOK 10/M05 Q1026 R06R/CLRD62 R06C/CLRD62 NOSIG
Conditions at: UUEE (MOSCOW/SHEREMET', RU) observed 1000 UTC 18 April 2019
Temperature: 10.0°C (50°F)
Dewpoint: -5.0°C (23°F) [RH = 34%]
Pressure (altimeter): 30.30 inches Hg (1026.0 mb)
Winds: from the NE (40 degrees) at 9 MPH (8 knots; 4.1 m/s)
Visibility: 6 or more miles (10+ km)
Ceiling: ceiling and visibility are OK
Clouds: unknown
Weather: no significant weather observed at this time

METAR text: UUEE 180930Z 05004MPS 010V080 CAVOK 10/M04 Q1026 R06R/CLRD62 R06C/CLRD62 NOSIG
Conditions at: UUEE (MOSCOW/SHEREMET', RU) observed 0930 UTC 18 April 2019
Temperature: 10.0°C (50°F)
Dewpoint: -4.0°C (25°F) [RH = 37%]
Pressure (altimeter): 30.30 inches Hg (1026.0 mb)
Winds: from the NE (50 degrees) at 9 MPH (8 knots; 4.1 m/s)
Visibility: 6 or more miles (10+ km)
Ceiling: ceiling and visibility are OK
Clouds: unknown
Weather: no significant weather observed at this time

METAR text: UUEE 180900Z 02004MPS 340V070 CAVOK 10/M04 Q1026 R06R/CLRD62 NOSIG
Conditions at: UUEE (MOSCOW/SHEREMET', RU) observed 0900 UTC 18 April 2019
Temperature: 10.0°C (50°F)
Dewpoint: -4.0°C (25°F) [RH = 37%]
Pressure (altimeter): 30.30 inches Hg (1026.0 mb)
Winds: from the NNE (20 degrees) at 9 MPH (8 knots; 4.1 m/s)
Visibility: 6 or more miles (10+ km)
Ceiling: ceiling and visibility are OK
Clouds: unknown
Weather: no significant weather observed at this time

METAR text: UUEE 180830Z 04003MPS CAVOK 10/M05 Q1026 R06C/CLRD62 NOSIG
Conditions at: UUEE (MOSCOW/SHEREMET', RU) observed 0830 UTC 18 April 2019
Temperature: 10.0°C (50°F)
Dewpoint: -5.0°C (23°F) [RH = 34%]
Pressure (altimeter): 30.30 inches Hg (1026.0 mb)
Winds: from the NE (40 degrees) at 7 MPH (6 knots; 3.1 m/s)
Visibility: 6 or more miles (10+ km)
Ceiling: ceiling and visibility are OK
Clouds: unknown
Weather: no significant weather observed at this time

METAR text: UUEE 180800Z 36003MPS CAVOK 10/M04 Q1026 R06C/CLRD62 NOSIG
Conditions at: UUEE (MOSCOW/SHEREMET', RU) observed 0800 UTC 18 April 2019
Temperature: 10.0°C (50°F)
Dewpoint: -4.0°C (25°F) [RH = 37%]
Pressure (altimeter): 30.30 inches Hg (1026.0 mb)
Winds: from the N (360 degrees) at 7 MPH (6 knots; 3.1 m/s)
Visibility: 6 or more miles (10+ km)
Ceiling: ceiling and visibility are OK
Clouds: unknown
Weather: no significant weather observed at this time

METAR text: UUEE 180730Z 02003MPS CAVOK 09/M04 Q1026 R06C/CLRD62 R06R/CLRD62 NOSIG
Conditions at: UUEE (MOSCOW/SHEREMET', RU) observed 0730 UTC 18 April 2019
Temperature: 9.0°C (48°F)
Dewpoint: -4.0°C (25°F) [RH = 40%]
Pressure (altimeter): 30.30 inches Hg (1026.0 mb)
Winds: from the NNE (20 degrees) at 7 MPH (6 knots; 3.1 m/s)
Visibility: 6 or more miles (10+ km)
Ceiling: ceiling and visibility are OK
Clouds: unknown
Weather: no significant weather observed at this time

METAR text: UUEE 180700Z 01003MPS CAVOK 09/M05 Q1026 R06C/CLRD62 R06R/CLRD62 NOSIG
Conditions at: UUEE (MOSCOW/SHEREMET', RU) observed 0700 UTC 18 April 2019
Temperature: 9.0°C (48°F)
Dewpoint: -5.0°C (23°F) [RH = 37%]
Pressure (altimeter): 30.30 inches Hg (1026.0 mb)
Winds: from the N (10 degrees) at 7 MPH (6 knots; 3.1 m/s)
Visibility: 6 or more miles (10+ km)
Ceiling: ceiling and visibility are OK
Clouds: unknown
Weather: no significant weather observed at this time

METAR text: UUEE 180630Z VRB01MPS CAVOK 09/M04 Q1026 R06C/CLRD62 R06R/CLRD62 NOSIG
Conditions at: UUEE (MOSCOW/SHEREMET', RU) observed 0630 UTC 18 April 2019
Temperature: 9.0°C (48°F)
Dewpoint: -4.0°C (25°F) [RH = 40%]
Pressure (altimeter): 30.30 inches Hg (1026.0 mb)
Winds: variable direction winds at 2 MPH (2 knots; 1.0 m/s)
Visibility: 6 or more miles (10+ km)
Ceiling: ceiling and visibility are OK
Clouds: unknown
Weather: no significant weather observed at this time

METAR text: UUEE 180600Z VRB01MPS CAVOK 09/M04 Q1026 R06C/CLRD62 R06R/CLRD62 NOSIG
Conditions at: UUEE (MOSCOW/SHEREMET', RU) observed 0600 UTC 18 April 2019
Temperature: 9.0°C (48°F)
Dewpoint: -4.0°C (25°F) [RH = 40%]
Pressure (altimeter): 30.30 inches Hg (1026.0 mb)
Winds: variable direction winds at 2 MPH (2 knots; 1.0 m/s)
Visibility: 6 or more miles (10+ km)
Ceiling: ceiling and visibility are OK
Clouds: unknown
Weather: no significant weather observed at this time

METAR text: UUEE 180530Z VRB01MPS CAVOK 08/M03 Q1027 R06C/CLRD62 R06R/CLRD62 NOSIG
Conditions at: UUEE (MOSCOW/SHEREMET', RU) observed 0530 UTC 18 April 2019
Temperature: 8.0°C (46°F)
Dewpoint: -3.0°C (27°F) [RH = 46%]
Pressure (altimeter): 30.32 inches Hg (1027.0 mb)
Winds: variable direction winds at 2 MPH (2 knots; 1.0 m/s)
Visibility: 6 or more miles (10+ km)
Ceiling: ceiling and visibility are OK
Clouds: unknown
Weather: no significant weather observed at this time

METAR text: UUEE 180500Z VRB01MPS CAVOK 06/M04 Q1027 R06C/CLRD62 R06R/CLRD62 NOSIG
Conditions at: UUEE (MOSCOW/SHEREMET', RU) observed 0500 UTC 18 April 2019
Temperature: 6.0°C (43°F)
Dewpoint: -4.0°C (25°F) [RH = 49%]
Pressure (altimeter): 30.32 inches Hg (1027.0 mb)
Winds: variable direction winds at 2 MPH (2 knots; 1.0 m/s)
Visibility: 6 or more miles (10+ km)
Ceiling: ceiling and visibility are OK
Clouds: unknown
Weather: no significant weather observed at this time

METAR text: UUEE 180430Z VRB01MPS CAVOK 05/M04 Q1027 R06C/CLRD62 R06R/CLRD62 NOSIG
Conditions at: UUEE (MOSCOW/SHEREMET', RU) observed 0430 UTC 18 April 2019
Temperature: 5.0°C (41°F)
Dewpoint: -4.0°C (25°F) [RH = 52%]
Pressure (altimeter): 30.32 inches Hg (1027.0 mb)
Winds: variable direction winds at 2 MPH (2 knots; 1.0 m/s)
Visibility: 6 or more miles (10+ km)
Ceiling: ceiling and visibility are OK
Clouds: unknown
Weather: no significant weather observed at this time

METAR text: UUEE 180400Z 24001MPS CAVOK 04/M04 Q1027 R06C/CLRD62 R06R/CLRD62 NOSIG
Conditions at: UUEE (MOSCOW/SHEREMET', RU) observed 0400 UTC 18 April 2019
Temperature: 4.0°C (39°F)
Dewpoint: -4.0°C (25°F) [RH = 56%]
Pressure (altimeter): 30.32 inches Hg (1027.0 mb)
Winds: from the WSW (240 degrees) at 2 MPH (2 knots; 1.0 m/s)
Visibility: 6 or more miles (10+ km)
Ceiling: ceiling and visibility are OK
Clouds: unknown
Weather: no significant weather observed at this time

METAR text: UUEE 180330Z 29001MPS CAVOK 02/M04 Q1027 R06R/CLRD62 R06C/CLRD62 NOSIG
Conditions at: UUEE (MOSCOW/SHEREMET', RU) observed 0330 UTC 18 April 2019
Temperature: 2.0°C (36°F)
Dewpoint: -4.0°C (25°F) [RH = 64%]
Pressure (altimeter): 30.32 inches Hg (1027.0 mb)
Winds: from the WNW (290 degrees) at 2 MPH (2 knots; 1.0 m/s)
Visibility: 6 or more miles (10+ km)
Ceiling: ceiling and visibility are OK
Clouds: unknown
Weather: no significant weather observed at this time

METAR text: UUEE 180300Z 26001MPS CAVOK 01/M05 Q1028 R06R/CLRD62 R06C/CLRD62 NOSIG
Conditions at: UUEE (MOSCOW/SHEREMET', RU) observed 0300 UTC 18 April 2019
Temperature: 1.0°C (34°F)
Dewpoint: -5.0°C (23°F) [RH = 64%]
Pressure (altimeter): 30.35 inches Hg (1028.0 mb)
Winds: from the W (260 degrees) at 2 MPH (2 knots; 1.0 m/s)
Visibility: 6 or more miles (10+ km)
Ceiling: ceiling and visibility are OK
Clouds: unknown
Weather: no significant weather observed at this time

METAR text: UUEE 180230Z VRB01MPS CAVOK 00/M04 Q1028 R06R/CLRD62 R06C/CLRD62 NOSIG
Conditions at: UUEE (MOSCOW/SHEREMET', RU) observed 0230 UTC 18 April 2019
Temperature: 0.0°C (32°F)
Dewpoint: -4.0°C (25°F) [RH = 74%]
Pressure (altimeter): 30.35 inches Hg (1028.0 mb)
Winds: variable direction winds at 2 MPH (2 knots; 1.0 m/s)
Visibility: 6 or more miles (10+ km)
Ceiling: ceiling and visibility are OK
Clouds: unknown
Weather: no significant weather observed at this time

METAR text: UUEE 180200Z VRB01MPS CAVOK M00/M04 Q1028 R06R/CLRD62 NOSIG
Conditions at: UUEE (MOSCOW/SHEREMET', RU) observed 0200 UTC 18 April 2019
Temperature: 0.0°C (32°F)
Dewpoint: -4.0°C (25°F) [RH = 74%]
Pressure (altimeter): 30.35 inches Hg (1028.0 mb)
Winds: variable direction winds at 2 MPH (2 knots; 1.0 m/s)
Visibility: 6 or more miles (10+ km)
Ceiling: ceiling and visibility are OK
Clouds: unknown
Weather: no significant weather observed at this time

METAR text: UUEE 180130Z 27001MPS CAVOK 01/M04 Q1028 R06R/CLRD62 NOSIG
Conditions at: UUEE (MOSCOW/SHEREMET', RU) observed 0130 UTC 18 April 2019
Temperature: 1.0°C (34°F)
Dewpoint: -4.0°C (25°F) [RH = 69%]
Pressure (altimeter): 30.35 inches Hg (1028.0 mb)
Winds: from the W (270 degrees) at 2 MPH (2 knots; 1.0 m/s)
Visibility: 6 or more miles (10+ km)
Ceiling: ceiling and visibility are OK
Clouds: unknown
Weather: no significant weather observed at this time

METAR text: UUEE 180100Z VRB01MPS CAVOK 03/M05 Q1028 R06R/CLRD62 NOSIG
Conditions at: UUEE (MOSCOW/SHEREMET', RU) observed 0100 UTC 18 April 2019
Temperature: 3.0°C (37°F)
Dewpoint: -5.0°C (23°F) [RH = 56%]
Pressure (altimeter): 30.35 inches Hg (1028.0 mb)
Winds: variable direction winds at 2 MPH (2 knots; 1.0 m/s)
Visibility: 6 or more miles (10+ km)
Ceiling: ceiling and visibility are OK
Clouds: unknown
Weather: no significant weather observed at this time

METAR text: UUEE 180030Z 30001MPS CAVOK M00/M05 Q1029 R06R/CLRD62 NOSIG
Conditions at: UUEE (MOSCOW/SHEREMET', RU) observed 0030 UTC 18 April 2019
Temperature: 0.0°C (32°F)
Dewpoint: -5.0°C (23°F) [RH = 69%]
Pressure (altimeter): 30.38 inches Hg (1029.0 mb)
Winds: from the WNW (300 degrees) at 2 MPH (2 knots; 1.0 m/s)
Visibility: 6 or more miles (10+ km)
Ceiling: ceiling and visibility are OK
Clouds: unknown
Weather: no significant weather observed at this time

METAR text: UUEE 180000Z 28001MPS CAVOK 02/M03 Q1029 R06R/CLRD62 NOSIG
Conditions at: UUEE (MOSCOW/SHEREMET', RU) observed 0000 UTC 18 April 2019
Temperature: 2.0°C (36°F)
Dewpoint: -3.0°C (27°F) [RH = 69%]
Pressure (altimeter): 30.38 inches Hg (1029.0 mb)
Winds: from the W (280 degrees) at 2 MPH (2 knots; 1.0 m/s)
Visibility: 6 or more miles (10+ km)
Ceiling: ceiling and visibility are OK
Clouds: unknown
Weather: no significant weather observed at this time

METAR text: UUEE 172330Z VRB01MPS CAVOK 02/M04 Q1029 R06R/CLRD62 NOSIG
Conditions at: UUEE (MOSCOW/SHEREMET', RU) observed 2330 UTC 17 April 2019
Temperature: 2.0°C (36°F)
Dewpoint: -4.0°C (25°F) [RH = 64%]
Pressure (altimeter): 30.38 inches Hg (1029.0 mb)
Winds: variable direction winds at 2 MPH (2 knots; 1.0 m/s)
Visibility: 6 or more miles (10+ km)
Ceiling: ceiling and visibility are OK
Clouds: unknown
Weather: no significant weather observed at this time

METAR text: UUEE 172300Z 27001MPS CAVOK 02/M05 Q1029 R06R/CLRD62 NOSIG
Conditions at: UUEE (MOSCOW/SHEREMET', RU) observed 2300 UTC 17 April 2019
Temperature: 2.0°C (36°F)
Dewpoint: -5.0°C (23°F) [RH = 60%]
Pressure (altimeter): 30.38 inches Hg (1029.0 mb)
Winds: from the W (270 degrees) at 2 MPH (2 knots; 1.0 m/s)
Visibility: 6 or more miles (10+ km)
Ceiling: ceiling and visibility are OK
Clouds: unknown
Weather: no significant weather observed at this time

METAR text: UUEE 172230Z VRB01MPS CAVOK 03/M04 Q1030 R06R/CLRD62 NOSIG
Conditions at: UUEE (MOSCOW/SHEREMET', RU) observed 2230 UTC 17 April 2019
Temperature: 3.0°C (37°F)
Dewpoint: -4.0°C (25°F) [RH = 60%]
Pressure (altimeter): 30.41 inches Hg (1030.0 mb)
Winds: variable direction winds at 2 MPH (2 knots; 1.0 m/s)
Visibility: 6 or more miles (10+ km)
Ceiling: ceiling and visibility are OK
Clouds: unknown
Weather: no significant weather observed at this time

METAR text: UUEE 172200Z 29001MPS CAVOK 03/M05 Q1030 R06R/CLRD62 NOSIG
Conditions at: UUEE (MOSCOW/SHEREMET', RU) observed 2200 UTC 17 April 2019
Temperature: 3.0°C (37°F)
Dewpoint: -5.0°C (23°F) [RH = 56%]
Pressure (altimeter): 30.41 inches Hg (1030.0 mb)
Winds: from the WNW (290 degrees) at 2 MPH (2 knots; 1.0 m/s)
Visibility: 6 or more miles (10+ km)
Ceiling: ceiling and visibility are OK
Clouds: unknown
Weather: no significant weather observed at this time

METAR text: UUEE 172130Z 30001MPS CAVOK 03/M04 Q1030 R06R/CLRD62 NOSIG
Conditions at: UUEE (MOSCOW/SHEREMET', RU) observed 2130 UTC 17 April 2019
Temperature: 3.0°C (37°F)
Dewpoint: -4.0°C (25°F) [RH = 60%]
Pressure (altimeter): 30.41 inches Hg (1030.0 mb)
Winds: from the WNW (300 degrees) at 2 MPH (2 knots; 1.0 m/s)
Visibility: 6 or more miles (10+ km)
Ceiling: ceiling and visibility are OK
Clouds: unknown
Weather: no significant weather observed at this time

METAR text: UUEE 172100Z VRB01MPS CAVOK 04/M05 Q1030 R06R/CLRD62 R06C/CLRD62 NOSIG
Conditions at: UUEE (MOSCOW/SHEREMET', RU) observed 2100 UTC 17 April 2019
Temperature: 4.0°C (39°F)
Dewpoint: -5.0°C (23°F) [RH = 52%]
Pressure (altimeter): 30.41 inches Hg (1030.0 mb)
Winds: variable direction winds at 2 MPH (2 knots; 1.0 m/s)
Visibility: 6 or more miles (10+ km)
Ceiling: ceiling and visibility are OK
Clouds: unknown
Weather: no significant weather observed at this time

METAR text: UUEE 172030Z 07002MPS 360V110 CAVOK 06/M07 Q1030 R06R/CLRD62 R06C/CLRD62 NOSIG
Conditions at: UUEE (MOSCOW/SHEREMET', RU) observed 2030 UTC 17 April 2019
Temperature: 6.0°C (43°F)
Dewpoint: -7.0°C (19°F) [RH = 39%]
Pressure (altimeter): 30.41 inches Hg (1030.0 mb)
Winds: from the ENE (70 degrees) at 5 MPH (4 knots; 2.1 m/s)
Visibility: 6 or more miles (10+ km)
Ceiling: ceiling and visibility are OK
Clouds: unknown
Weather: no significant weather observed at this time

METAR text: UUEE 172000Z VRB01MPS CAVOK 04/M04 Q1030 R06C/CLRD62 R06R/CLRD62 NOSIG
Conditions at: UUEE (MOSCOW/SHEREMET', RU) observed 2000 UTC 17 April 2019
Temperature: 4.0°C (39°F)
Dewpoint: -4.0°C (25°F) [RH = 56%]
Pressure (altimeter): 30.41 inches Hg (1030.0 mb)
Winds: variable direction winds at 2 MPH (2 knots; 1.0 m/s)
Visibility: 6 or more miles (10+ km)
Ceiling: ceiling and visibility are OK
Clouds: unknown
Weather: no significant weather observed at this time

METAR text: UUEE 171930Z 03002MPS CAVOK 05/M04 Q1030 R06C/CLRD62 R06R/CLRD62 NOSIG
Conditions at: UUEE (MOSCOW/SHEREMET', RU) observed 1930 UTC 17 April 2019
Temperature: 5.0°C (41°F)
Dewpoint: -4.0°C (25°F) [RH = 52%]
Pressure (altimeter): 30.41 inches Hg (1030.0 mb)
Winds: from the NNE (30 degrees) at 5 MPH (4 knots; 2.1 m/s)
Visibility: 6 or more miles (10+ km)
Ceiling: ceiling and visibility are OK
Clouds: unknown
Weather: no significant weather observed at this time

METAR text: UUEE 171900Z 02002MPS CAVOK 05/M04 Q1030 R06C/CLRD62 R06R/CLRD62 NOSIG
Conditions at: UUEE (MOSCOW/SHEREMET', RU) observed 1900 UTC 17 April 2019
Temperature: 5.0°C (41°F)
Dewpoint: -4.0°C (25°F) [RH = 52%]
Pressure (altimeter): 30.41 inches Hg (1030.0 mb)
Winds: from the NNE (20 degrees) at 5 MPH (4 knots; 2.1 m/s)
Visibility: 6 or more miles (10+ km)
Ceiling: ceiling and visibility are OK
Clouds: unknown
Weather: no significant weather observed at this time

METAR text: UUEE 171830Z VRB01MPS CAVOK 07/M07 Q1030 R06C/CLRD62 R06R/CLRD62 NOSIG
Conditions at: UUEE (MOSCOW/SHEREMET', RU) observed 1830 UTC 17 April 2019
Temperature: 7.0°C (45°F)
Dewpoint: -7.0°C (19°F) [RH = 36%]
Pressure (altimeter): 30.41 inches Hg (1030.0 mb)
Winds: variable direction winds at 2 MPH (2 knots; 1.0 m/s)
Visibility: 6 or more miles (10+ km)
Ceiling: ceiling and visibility are OK
Clouds: unknown
Weather: no significant weather observed at this time

METAR text: UUEE 171800Z 07003MPS CAVOK 08/M07 Q1030 R06C/CLRD62 R06R/CLRD62 NOSIG
Conditions at: UUEE (MOSCOW/SHEREMET', RU) observed 1800 UTC 17 April 2019
Temperature: 8.0°C (46°F)
Dewpoint: -7.0°C (19°F) [RH = 34%]
Pressure (altimeter): 30.41 inches Hg (1030.0 mb)
Winds: from the ENE (70 degrees) at 7 MPH (6 knots; 3.1 m/s)
Visibility: 6 or more miles (10+ km)
Ceiling: ceiling and visibility are OK
Clouds: unknown
Weather: no significant weather observed at this time

METAR text: UUEE 171730Z 07003MPS CAVOK 08/M07 Q1030 R06C/CLRD62 R06R/CLRD62 NOSIG
Conditions at: UUEE (MOSCOW/SHEREMET', RU) observed 1730 UTC 17 April 2019
Temperature: 8.0°C (46°F)
Dewpoint: -7.0°C (19°F) [RH = 34%]
Pressure (altimeter): 30.41 inches Hg (1030.0 mb)
Winds: from the ENE (70 degrees) at 7 MPH (6 knots; 3.1 m/s)
Visibility: 6 or more miles (10+ km)
Ceiling: ceiling and visibility are OK
Clouds: unknown
Weather: no significant weather observed at this time

METAR text: UUEE 171700Z 06003MPS CAVOK 08/M07 Q1030 R06C/CLRD62 R06R/CLRD62 NOSIG
Conditions at: UUEE (MOSCOW/SHEREMET', RU) observed 1700 UTC 17 April 2019
Temperature: 8.0°C (46°F)
Dewpoint: -7.0°C (19°F) [RH = 34%]
Pressure (altimeter): 30.41 inches Hg (1030.0 mb)
Winds: from the ENE (60 degrees) at 7 MPH (6 knots; 3.1 m/s)
Visibility: 6 or more miles (10+ km)
Ceiling: ceiling and visibility are OK
Clouds: unknown
Weather: no significant weather observed at this time

METAR text: UUEE 171630Z 07003MPS CAVOK 08/M06 Q1030 R06R/CLRD62 R06C/CLRD62 NOSIG
Conditions at: UUEE (MOSCOW/SHEREMET', RU) observed 1630 UTC 17 April 2019
Temperature: 8.0°C (46°F)
Dewpoint: -6.0°C (21°F) [RH = 36%]
Pressure (altimeter): 30.41 inches Hg (1030.0 mb)
Winds: from the ENE (70 degrees) at 7 MPH (6 knots; 3.1 m/s)
Visibility: 6 or more miles (10+ km)
Ceiling: ceiling and visibility are OK
Clouds: unknown
Weather: no significant weather observed at this time

METAR text: UUEE 171600Z 09003MPS CAVOK 08/M07 Q1030 R06R/CLRD62 R06C/CLRD62 NOSIG
Conditions at: UUEE (MOSCOW/SHEREMET', RU) observed 1600 UTC 17 April 2019
Temperature: 8.0°C (46°F)
Dewpoint: -7.0°C (19°F) [RH = 34%]
Pressure (altimeter): 30.41 inches Hg (1030.0 mb)
Winds: from the E (90 degrees) at 7 MPH (6 knots; 3.1 m/s)
Visibility: 6 or more miles (10+ km)
Ceiling: ceiling and visibility are OK
Clouds: unknown
Weather: no significant weather observed at this time

METAR text: UUEE 171530Z 06002MPS CAVOK 09/M07 Q1030 R06R/CLRD62 R06C/CLRD62 NOSIG
Conditions at: UUEE (MOSCOW/SHEREMET', RU) observed 1530 UTC 17 April 2019
Temperature: 9.0°C (48°F)
Dewpoint: -7.0°C (19°F) [RH = 32%]
Pressure (altimeter): 30.41 inches Hg (1030.0 mb)
Winds: from the ENE (60 degrees) at 5 MPH (4 knots; 2.1 m/s)
Visibility: 6 or more miles (10+ km)
Ceiling: ceiling and visibility are OK
Clouds: unknown
Weather: no significant weather observed at this time

METAR text: UUEE 171500Z 06003MPS CAVOK 10/M07 Q1030 R06R/CLRD62 R06C/CLRD62 NOSIG
Conditions at: UUEE (MOSCOW/SHEREMET', RU) observed 1500 UTC 17 April 2019
Temperature: 10.0°C (50°F)
Dewpoint: -7.0°C (19°F) [RH = 29%]
Pressure (altimeter): 30.41 inches Hg (1030.0 mb)
Winds: from the ENE (60 degrees) at 7 MPH (6 knots; 3.1 m/s)
Visibility: 6 or more miles (10+ km)
Ceiling: ceiling and visibility are OK
Clouds: unknown
Weather: no significant weather observed at this time

METAR text: UUEE 171430Z 05002MPS 350V090 CAVOK 10/M07 Q1031 R06R/CLRD62 R06C/CLRD62 NOSIG
Conditions at: UUEE (MOSCOW/SHEREMET', RU) observed 1430 UTC 17 April 2019
Temperature: 10.0°C (50°F)
Dewpoint: -7.0°C (19°F) [RH = 29%]
Pressure (altimeter): 30.44 inches Hg (1031.0 mb)
Winds: from the NE (50 degrees) at 5 MPH (4 knots; 2.1 m/s)
Visibility: 6 or more miles (10+ km)
Ceiling: ceiling and visibility are OK
Clouds: unknown
Weather: no significant weather observed at this time

METAR text: UUEE 171400Z VRB02MPS CAVOK 10/M07 Q1031 R06R/CLRD62 R06C/CLRD62 NOSIG
Conditions at: UUEE (MOSCOW/SHEREMET', RU) observed 1400 UTC 17 April 2019
Temperature: 10.0°C (50°F)
Dewpoint: -7.0°C (19°F) [RH = 29%]
Pressure (altimeter): 30.44 inches Hg (1031.0 mb)
Winds: variable direction winds at 5 MPH (4 knots; 2.1 m/s)
Visibility: 6 or more miles (10+ km)
Ceiling: ceiling and visibility are OK
Clouds: unknown
Weather: no significant weather observed at this time

METAR text: UUEE 171330Z VRB03MPS CAVOK 10/M07 Q1031 R06R/CLRD62 R06C/CLRD62 NOSIG
Conditions at: UUEE (MOSCOW/SHEREMET', RU) observed 1330 UTC 17 April 2019
Temperature: 10.0°C (50°F)
Dewpoint: -7.0°C (19°F) [RH = 29%]
Pressure (altimeter): 30.44 inches Hg (1031.0 mb)
Winds: variable direction winds at 7 MPH (6 knots; 3.1 m/s)
Visibility: 6 or more miles (10+ km)
Ceiling: ceiling and visibility are OK
Clouds: unknown
Weather: no significant weather observed at this time

METAR text: UUEE 171300Z 10004MPS 060V160 CAVOK 11/M07 Q1031 R06R/CLRD62 R06C/CLRD62 NOSIG
Conditions at: UUEE (MOSCOW/SHEREMET', RU) observed 1300 UTC 17 April 2019
Temperature: 11.0°C (52°F)
Dewpoint: -7.0°C (19°F) [RH = 28%]
Pressure (altimeter): 30.44 inches Hg (1031.0 mb)
Winds: from the E (100 degrees) at 9 MPH (8 knots; 4.1 m/s)
Visibility: 6 or more miles (10+ km)
Ceiling: ceiling and visibility are OK
Clouds: unknown
Weather: no significant weather observed at this time

METAR text: UUEE 171230Z VRB02G08MPS CAVOK 10/M06 Q1032 R06R/CLRD62 R06C/CLRD62 NOSIG
Conditions at: UUEE (MOSCOW/SHEREMET', RU) observed 1230 UTC 17 April 2019
Temperature: 10.0°C (50°F)
Dewpoint: -6.0°C (21°F) [RH = 32%]
Pressure (altimeter): 30.47 inches Hg (1032.0 mb)
Winds: variable direction winds at 5 MPH (4 knots; 2.1 m/s)
gusting to 18 MPH (16 knots; 8.2 m/s)
Visibility: 6 or more miles (10+ km)
Ceiling: ceiling and visibility are OK
Clouds: unknown
Weather: no significant weather observed at this time

METAR text: UUEE 171200Z 13003MPS 090V180 CAVOK 10/M07 Q1032 R06R/CLRD62 R06C/CLRD62 NOSIG
Conditions at: UUEE (MOSCOW/SHEREMET', RU) observed 1200 UTC 17 April 2019
Temperature: 10.0°C (50°F)
Dewpoint: -7.0°C (19°F) [RH = 29%]
Pressure (altimeter): 30.47 inches Hg (1032.0 mb)
Winds: from the SE (130 degrees) at 7 MPH (6 knots; 3.1 m/s)
Visibility: 6 or more miles (10+ km)
Ceiling: ceiling and visibility are OK
Clouds: unknown
Weather: no significant weather observed at this time

METAR text: UUEE 171130Z 07004MPS 030V110 CAVOK 09/M08 Q1032 R06R/CLRD62 R06C/CLRD62 NOSIG
Conditions at: UUEE (MOSCOW/SHEREMET', RU) observed 1130 UTC 17 April 2019
Temperature: 9.0°C (48°F)
Dewpoint: -8.0°C (18°F) [RH = 29%]
Pressure (altimeter): 30.47 inches Hg (1032.0 mb)
Winds: from the ENE (70 degrees) at 9 MPH (8 knots; 4.1 m/s)
Visibility: 6 or more miles (10+ km)
Ceiling: ceiling and visibility are OK
Clouds: unknown
Weather: no significant weather observed at this time

METAR text: UUEE 171100Z VRB03MPS CAVOK 10/M06 Q1032 R06R/CLRD62 R06C/CLRD62 NOSIG
Conditions at: UUEE (MOSCOW/SHEREMET', RU) observed 1100 UTC 17 April 2019
Temperature: 10.0°C (50°F)
Dewpoint: -6.0°C (21°F) [RH = 32%]
Pressure (altimeter): 30.47 inches Hg (1032.0 mb)
Winds: variable direction winds at 7 MPH (6 knots; 3.1 m/s)
Visibility: 6 or more miles (10+ km)
Ceiling: ceiling and visibility are OK
Clouds: unknown
Weather: no significant weather observed at this time

METAR text: UUEE 171030Z 13003MPS 090V160 CAVOK 10/M06 Q1033 R06R/CLRD62 R06C/CLRD62 NOSIG
Conditions at: UUEE (MOSCOW/SHEREMET', RU) observed 1030 UTC 17 April 2019
Temperature: 10.0°C (50°F)
Dewpoint: -6.0°C (21°F) [RH = 32%]
Pressure (altimeter): 30.50 inches Hg (1033.0 mb)
Winds: from the SE (130 degrees) at 7 MPH (6 knots; 3.1 m/s)
Visibility: 6 or more miles (10+ km)
Ceiling: ceiling and visibility are OK
Clouds: unknown
Weather: no significant weather observed at this time

METAR text: UUEE 171000Z VRB03MPS CAVOK 09/M07 Q1033 R06R/CLRD62 R06C/CLRD62 NOSIG
Conditions at: UUEE (MOSCOW/SHEREMET', RU) observed 1000 UTC 17 April 2019
Temperature: 9.0°C (48°F)
Dewpoint: -7.0°C (19°F) [RH = 32%]
Pressure (altimeter): 30.50 inches Hg (1033.0 mb)
Winds: variable direction winds at 7 MPH (6 knots; 3.1 m/s)
Visibility: 6 or more miles (10+ km)
Ceiling: ceiling and visibility are OK
Clouds: unknown
Weather: no significant weather observed at this time

METAR text: UUEE 170930Z 08004MPS 060V150 CAVOK 09/M06 Q1033 R06R/CLRD62 R06C/CLRD62 NOSIG
Conditions at: UUEE (MOSCOW/SHEREMET', RU) observed 0930 UTC 17 April 2019
Temperature: 9.0°C (48°F)
Dewpoint: -6.0°C (21°F) [RH = 34%]
Pressure (altimeter): 30.50 inches Hg (1033.0 mb)
Winds: from the E (80 degrees) at 9 MPH (8 knots; 4.1 m/s)
Visibility: 6 or more miles (10+ km)
Ceiling: ceiling and visibility are OK
Clouds: unknown
Weather: no significant weather observed at this time

METAR text: UUEE 170900Z 08005MPS 030V130 CAVOK 08/M06 Q1033 R06R/CLRD62 R06C/CLRD62 NOSIG
Conditions at: UUEE (MOSCOW/SHEREMET', RU) observed 0900 UTC 17 April 2019
Temperature: 8.0°C (46°F)
Dewpoint: -6.0°C (21°F) [RH = 36%]
Pressure (altimeter): 30.50 inches Hg (1033.0 mb)
Winds: from the E (80 degrees) at 12 MPH (10 knots; 5.1 m/s)
Visibility: 6 or more miles (10+ km)
Ceiling: ceiling and visibility are OK
Clouds: unknown
Weather: no significant weather observed at this time

METAR text: UUEE 170830Z 08004MPS 040V110 CAVOK 08/M05 Q1033 R06R/CLRD62 R06C/CLRD62 NOSIG
Conditions at: UUEE (MOSCOW/SHEREMET', RU) observed 0830 UTC 17 April 2019
Temperature: 8.0°C (46°F)
Dewpoint: -5.0°C (23°F) [RH = 39%]
Pressure (altimeter): 30.50 inches Hg (1033.0 mb)
Winds: from the E (80 degrees) at 9 MPH (8 knots; 4.1 m/s)
Visibility: 6 or more miles (10+ km)
Ceiling: ceiling and visibility are OK
Clouds: unknown
Weather: no significant weather observed at this time

METAR text: UUEE 170800Z 07005MPS CAVOK 07/M05 Q1033 R06R/CLRD62 NOSIG
Conditions at: UUEE (MOSCOW/SHEREMET', RU) observed 0800 UTC 17 April 2019
Temperature: 7.0°C (45°F)
Dewpoint: -5.0°C (23°F) [RH = 42%]
Pressure (altimeter): 30.50 inches Hg (1033.0 mb)
Winds: from the ENE (70 degrees) at 12 MPH (10 knots; 5.1 m/s)
Visibility: 6 or more miles (10+ km)
Ceiling: ceiling and visibility are OK
Clouds: unknown
Weather: no significant weather observed at this time

METAR text: UUEE 170730Z 05004MPS 010V080 CAVOK 07/M05 Q1034 R06C/CLRD62 R06R/CLRD62 NOSIG
Conditions at: UUEE (MOSCOW/SHEREMET', RU) observed 0730 UTC 17 April 2019
Temperature: 7.0°C (45°F)
Dewpoint: -5.0°C (23°F) [RH = 42%]
Pressure (altimeter): 30.53 inches Hg (1034.0 mb)
Winds: from the NE (50 degrees) at 9 MPH (8 knots; 4.1 m/s)
Visibility: 6 or more miles (10+ km)
Ceiling: ceiling and visibility are OK
Clouds: unknown
Weather: no significant weather observed at this time

METAR text: UUEE 170700Z 05005MPS CAVOK 06/M06 Q1033 R06C/CLRD62 R06R/CLRD62 NOSIG
Conditions at: UUEE (MOSCOW/SHEREMET', RU) observed 0700 UTC 17 April 2019
Temperature: 6.0°C (43°F)
Dewpoint: -6.0°C (21°F) [RH = 42%]
Pressure (altimeter): 30.50 inches Hg (1033.0 mb)
Winds: from the NE (50 degrees) at 12 MPH (10 knots; 5.1 m/s)
Visibility: 6 or more miles (10+ km)
Ceiling: ceiling and visibility are OK
Clouds: unknown
Weather: no significant weather observed at this time

Forecast for: UUEE (MOSCOW/SHEREMET', RU)
Text: TAF UUEE 181653Z 1818/1918 03003MPS CAVOK TX12/1912Z TNM00/1902Z
Forecast period: 1800 UTC 18 April 2019 to 1800 UTC 19 April 2019
Forecast type: FROM: standard forecast or significant change
Winds: from the NNE (30 degrees) at 7 MPH (6 knots; 3.1 m/s)
Visibility: 6 or more miles 10+ km)
Ceiling: unknown
Clouds: missing
Weather: no significant weather forecast for this period